Yushu, China
Current Conditions -  °F | °C
As of 5:00 AM on Friday 19 Dec 2014 (Local Time) from ZUUU Reporting Station
Haze Haze  
Wind Chill: 30°   Ceiling: Unl
Heat Index: 30°   Visibility: 2.1mi
Dew Point: 28°   Wind: 0mph
Humidity: 93%   Direction: NA
Pressure: 30.36"   Gusts: NA
Location:  33.02°N, 97.02°E
Report Text: ZUUU 182100Z 00000MPS 3500 BR NSC M01/M02 Q1028 BECMGTL22302500 BR
Loading
Personal Weather Stations






























Interactive Weather Map New forecast layout! Learn more

10-Day Weather Forecast

Advertisements
Track Severe Weather on mobile